Time;durP1;ratioP1;P1;durP2;ratioP2;P2;SDS_P1;SDS_P2;PMS_P1;PMS_P2;Temp;Humidity;BMP_temperature;BMP_pressure;BME280_temperature;BME280_humidity;BME280_pressure;Samples;Min_cycle;Max_cycle;Signal;HPM_P1;HPM_P2
2023/07/08 00:02:11;;;;;;;;;18.00;15.33;;;;;24.95;45.12;100933.31;4939186;28;46368;-70
2023/07/08 00:04:38;;;;;;;;;21.00;17.33;;;;;24.85;46.35;100919.22;4940874;28;45284;-70
2023/07/08 00:07:04;;;;;;;;;18.67;18.33;;;;;24.81;44.92;100920.25;4939698;28;45414;-70
2023/07/08 00:09:30;;;;;;;;;6.67;5.33;;;;;24.83;45.32;100931.91;4938049;28;45458;-70
2023/07/08 00:11:57;;;;;;;;;18.33;15.00;;;;;24.79;45.44;100941.94;4939210;28;46103;-70
2023/07/08 00:14:22;;;;;;;;;24.00;19.33;;;;;24.75;45.41;100937.56;4938048;28;45470;-70
2023/07/08 00:16:49;;;;;;;;;23.67;20.00;;;;;24.73;46.19;100936.75;4941085;28;45265;-69
2023/07/08 00:19:19;;;;;;;;;23.33;19.00;;;;;24.66;46.30;100940.56;4937221;28;45360;-70
2023/07/08 00:21:44;;;;;;;;;20.00;20.00;;;;;24.60;46.57;100940.75;4941107;28;45354;-70
2023/07/08 00:24:10;;;;;;;;;20.33;20.33;;;;;24.65;46.51;100949.63;4939167;28;45311;-70
2023/07/08 00:26:35;;;;;;;;;22.67;21.33;;;;;24.65;45.99;100954.16;4940934;28;45497;-70
2023/07/08 00:29:00;;;;;;;;;20.67;16.00;;;;;24.66;45.81;100954.06;4938834;28;45428;-70
2023/07/08 00:31:26;;;;;;;;;23.33;21.00;;;;;24.65;45.90;100954.16;4940797;28;46117;-70
2023/07/08 00:33:55;;;;;;;;;19.67;18.00;;;;;24.61;46.20;100949.75;4938959;28;45675;-70
2023/07/08 00:36:21;;;;;;;;;12.67;11.33;;;;;24.61;46.41;100957.84;4923719;28;45535;-70
2023/07/08 00:38:46;;;;;;;;;18.33;17.00;;;;;24.54;46.66;100949.06;4915783;28;45394;-70
2023/07/08 00:41:24;;;;;;;;;21.67;19.00;;;;;24.61;46.18;100963.25;4938986;28;45366;-70
2023/07/08 00:43:58;;;;;;;;;20.33;19.00;;;;;24.59;46.39;100970.53;4934113;28;45379;-70
2023/07/08 00:46:26;;;;;;;;;23.67;21.67;;;;;24.58;46.16;100971.47;4932989;28;45362;-70
2023/07/08 00:48:57;;;;;;;;;23.67;19.33;;;;;24.56;46.99;100967.00;4935049;28;45428;-70
2023/07/08 00:51:23;;;;;;;;;26.00;22.67;;;;;24.50;46.92;100967.16;4900376;28;47341;-70
2023/07/08 00:53:49;;;;;;;;;29.00;22.00;;;;;24.46;46.35;100959.22;4934555;28;45376;-70
2023/07/08 00:56:23;;;;;;;;;20.67;18.67;;;;;24.50;46.36;100964.47;4922847;28;45385;-70
2023/07/08 00:58:55;;;;;;;;;22.00;21.33;;;;;24.41;44.95;100944.94;4933824;28;45365;-70
2023/07/08 01:01:21;;;;;;;;;2.67;0.67;;;;;24.45;46.76;100949.31;4940464;28;45311;-70
2023/07/08 01:04:01;;;;;;;;;20.00;19.00;;;;;24.41;45.70;100953.03;4933896;28;45299;-70
2023/07/08 01:06:31;;;;;;;;;23.00;21.00;;;;;24.44;46.74;100963.78;4936206;28;45473;-69
2023/07/08 01:08:59;;;;;;;;;17.67;17.00;;;;;24.36;47.20;100953.16;4934229;28;45303;-69
2023/07/08 01:11:25;;;;;;;;;19.00;19.00;;;;;24.35;45.77;100944.19;4940162;28;45397;-70
2023/07/08 01:13:51;;;;;;;;;20.67;18.33;;;;;24.40;46.64;100962.09;4937812;28;45425;-70
2023/07/08 01:16:16;;;;;;;;;22.00;18.67;;;;;24.32;46.64;100946.97;4940701;28;45328;-70
2023/07/08 01:18:42;;;;;;;;;25.33;21.00;;;;;24.34;45.70;100961.34;4934114;28;45379;-70
2023/07/08 01:21:44;;;;;;;;;19.67;18.33;;;;;24.25;46.25;100950.78;4940355;28;45271;-70
2023/07/08 01:24:11;;;;;;;;;27.67;22.33;;;;;24.33;47.73;100969.47;4935317;28;45352;-70
2023/07/08 01:26:41;;;;;;;;;18.00;17.33;;;;;24.31;46.74;100976.72;4940206;28;45449;-70
2023/07/08 01:29:09;;;;;;;;;28.00;20.00;;;;;24.23;47.75;100958.06;4935372;28;45524;-70
2023/07/08 01:31:35;;;;;;;;;18.33;16.33;;;;;24.27;47.85;100957.03;4939801;28;45545;-70
2023/07/08 01:34:01;;;;;;;;;22.00;17.67;;;;;24.20;47.52;100941.97;4936570;28;45244;-70
2023/07/08 01:36:31;;;;;;;;;20.67;19.33;;;;;24.24;46.80;100958.94;4940267;28;45355;-70
2023/07/08 01:38:56;;;;;;;;;18.00;17.00;;;;;24.19;47.70;100964.47;4937699;28;45391;-70
2023/07/08 01:41:21;;;;;;;;;28.33;19.67;;;;;24.11;47.70;100955.72;4922465;28;48548;-70
2023/07/08 01:43:47;;;;;;;;;19.00;17.67;;;;;24.14;47.67;100961.03;4931379;28;45533;-69
2023/07/08 01:46:21;;;;;;;;;18.67;18.67;;;;;24.19;47.66;100977.97;4940866;28;50640;-70
2023/07/08 01:48:52;;;;;;;;;19.00;17.00;;;;;24.16;47.69;100993.41;4919307;28;45427;-69
2023/07/08 01:51:18;;;;;;;;;19.00;16.33;;;;;24.18;47.89;101011.34;4943180;28;45584;-69
2023/07/08 01:53:44;;;;;;;;;17.00;16.00;;;;;24.15;46.30;101073.56;4917348;28;45250;-70
2023/07/08 01:56:12;;;;;;;;;22.67;16.67;;;;;24.12;47.67;101117.75;4941696;28;45448;-70
2023/07/08 01:58:37;;;;;;;;;19.33;19.33;;;;;24.15;47.72;101097.88;4938727;28;45521;-69
2023/07/08 02:01:03;;;;;;;;;15.33;15.33;;;;;24.18;47.73;101094.19;4943117;28;50278;-69
2023/07/08 02:03:29;;;;;;;;;12.00;12.00;;;;;24.13;47.53;101084.41;4940680;28;45500;-70
2023/07/08 02:05:54;;;;;;;;;14.67;12.00;;;;;24.17;46.49;101084.31;4943344;28;45293;-70
2023/07/08 02:08:20;;;;;;;;;11.67;8.67;;;;;24.30;45.98;101110.94;4923092;28;45990;-70
2023/07/08 02:10:53;;;;;;;;;8.33;8.33;;;;;24.32;46.10;101105.50;4942300;28;46432;-70
2023/07/08 02:13:20;;;;;;;;;6.00;6.00;;;;;24.42;46.38;101114.22;4938828;28;45399;-70
2023/07/08 02:15:45;;;;;;;;;6.33;6.33;;;;;24.42;46.66;101100.72;4943274;28;45343;-70
2023/07/08 02:18:10;;;;;;;;;6.00;6.00;;;;;24.48;46.48;101101.50;4922698;28;45729;-69
2023/07/08 02:20:36;;;;;;;;;11.00;7.33;;;;;24.44;45.68;101098.91;4942175;28;46033;-69
2023/07/08 02:23:01;;;;;;;;;8.25;6.50;;;;;24.56;46.82;101099.47;4940904;28;47325;-69
2023/07/08 02:25:26;;;;;;;;;6.00;6.00;;;;;24.52;46.32;101091.47;4943128;28;45570;-70
2023/07/08 02:27:56;;;;;;;;;6.25;5.00;;;;;24.54;46.64;101089.63;4922269;28;46973;-70
2023/07/08 02:30:25;;;;;;;;;6.00;6.00;;;;;24.56;47.86;101094.06;4941869;28;45379;-70
2023/07/08 02:32:56;;;;;;;;;5.00;5.00;;;;;24.56;47.33;101104.84;4939567;28;45282;-71
2023/07/08 02:35:25;;;;;;;;;3.00;3.00;;;;;24.61;48.20;101093.00;4933950;28;45329;-70
2023/07/08 02:37:51;;;;;;;;;6.00;4.00;;;;;24.55;48.08;101076.03;4920663;28;46479;-70
2023/07/08 02:40:16;;;;;;;;;3.00;3.00;;;;;24.53;48.10;101066.19;4925132;28;45297;-71
2023/07/08 02:42:41;;;;;;;;;2.25;2.25;;;;;24.54;48.26;101057.19;4940154;28;47406;-70
2023/07/08 02:45:07;;;;;;;;;2.50;2.00;;;;;24.40;47.99;101032.34;4942507;28;49649;-71
2023/07/08 02:47:33;;;;;;;;;3.00;3.00;;;;;24.42;48.81;101047.56;4939695;28;45537;-70
2023/07/08 02:49:58;;;;;;;;;2.25;2.25;;;;;24.37;48.23;101035.09;4925074;28;45989;-70
2023/07/08 02:52:23;;;;;;;;;4.75;2.75;;;;;24.33;48.37;101040.59;4940296;28;45329;-70
2023/07/08 02:54:49;;;;;;;;;6.50;3.00;;;;;24.32;48.18;101037.97;4937593;28;45440;-70
2023/07/08 02:57:14;;;;;;;;;2.00;2.00;;;;;24.29;48.43;101035.34;4940536;28;48257;-70
2023/07/08 02:59:39;;;;;;;;;2.00;2.00;;;;;24.13;49.19;101018.69;4938623;28;53317;-70
2023/07/08 03:02:05;;;;;;;;;4.00;3.00;;;;;24.18;48.80;101030.25;4941713;28;45476;-70
2023/07/08 03:04:30;;;;;;;;;5.00;2.75;;;;;24.15;48.29;101029.47;4939867;28;45402;-70
2023/07/08 03:06:56;;;;;;;;;2.00;2.00;;;;;24.06;48.94;101015.28;4941717;28;45288;-71
2023/07/08 03:09:21;;;;;;;;;2.00;2.00;;;;;24.01;47.93;101016.34;4937402;28;45295;-70
2023/07/08 03:11:46;;;;;;;;;2.00;2.00;;;;;24.01;48.53;101014.53;4924553;28;45318;-70
2023/07/08 03:14:12;;;;;;;;;2.25;2.00;;;;;23.96;48.50;101008.34;4939464;28;45453;-70
2023/07/08 03:16:37;;;;;;;;;2.00;1.00;;;;;23.96;48.75;101011.06;4942250;28;46576;-70
2023/07/08 03:19:04;;;;;;;;;2.75;0.75;;;;;23.97;48.85;101017.34;4936986;28;46168;-70
2023/07/08 03:21:31;;;;;;;;;2.50;2.00;;;;;23.96;48.76;101023.69;4942461;28;45368;-70
2023/07/08 03:23:57;;;;;;;;;2.50;1.00;;;;;23.93;48.87;101015.66;4937868;28;45512;-70
2023/07/08 03:26:25;;;;;;;;;2.00;1.00;;;;;23.84;48.31;101012.28;4941917;28;45418;-70
2023/07/08 03:28:50;;;;;;;;;1.50;1.50;;;;;23.83;47.73;101018.59;4920811;28;46456;-70
2023/07/08 03:31:16;;;;;;;;;1.75;1.00;;;;;23.85;48.39;101014.03;4940564;28;45330;-70
2023/07/08 03:33:42;;;;;;;;;2.00;1.00;;;;;23.83;48.22;101007.78;4922462;28;45409;-70
2023/07/08 03:36:22;;;;;;;;;1.00;1.00;;;;;23.83;48.07;101002.41;4941706;28;45743;-70
2023/07/08 03:38:48;;;;;;;;;2.50;1.00;;;;;23.84;48.70;101006.00;4936063;28;45759;-70
2023/07/08 03:41:14;;;;;;;;;3.00;3.00;;;;;23.83;48.41;100997.00;4941633;28;45304;-70
2023/07/08 03:43:39;;;;;;;;;2.00;2.00;;;;;23.71;48.04;100966.78;4937117;28;45288;-70
2023/07/08 03:46:04;;;;;;;;;0.25;0.25;;;;;23.78;48.77;100982.75;4941274;28;53484;-70
2023/07/08 03:48:30;;;;;;;;;1.00;1.00;;;;;23.73;48.70;100967.63;4938793;28;46468;-69
2023/07/08 03:50:55;;;;;;;;;1.25;1.25;;;;;23.73;49.38;100962.22;4940902;28;50343;-69
2023/07/08 03:53:20;;;;;;;;;1.50;1.50;;;;;23.73;49.38;100967.63;4938009;28;45374;-70
2023/07/08 03:55:46;;;;;;;;;1.00;0.00;;;;;23.71;49.21;100961.38;4941367;28;45518;-70
2023/07/08 03:58:11;;;;;;;;;2.75;1.50;;;;;23.67;49.33;100955.16;4929994;28;58554;-69
2023/07/08 04:00:36;;;;;;;;;2.00;2.00;;;;;23.62;49.39;100957.09;4940270;28;45284;-69
2023/07/08 04:03:02;;;;;;;;;0.00;0.00;;;;;23.66;50.02;100959.63;4939275;28;45218;-69
2023/07/08 04:05:27;;;;;;;;;0.25;0.25;;;;;23.50;50.12;100928.63;4932493;28;45367;-69
2023/07/08 04:07:53;;;;;;;;;1.25;1.25;;;;;23.48;49.84;100925.06;4928914;28;45430;-69
2023/07/08 04:10:18;;;;;;;;;2.00;2.00;;;;;23.56;49.40;100938.38;4940198;28;45438;-69
2023/07/08 04:12:44;;;;;;;;;2.00;2.00;;;;;23.42;48.93;100912.63;4938349;28;45272;-69
2023/07/08 04:15:10;;;;;;;;;2.50;2.50;;;;;23.50;48.85;100916.91;4923605;28;46768;-69
2023/07/08 04:17:43;;;;;;;;;2.25;2.25;;;;;23.33;48.83;100885.91;4938084;28;45483;-69
2023/07/08 04:20:10;;;;;;;;;2.00;2.00;;;;;23.38;47.71;100891.16;4940792;28;45359;-69
2023/07/08 04:22:37;;;;;;;;;2.67;2.00;;;;;23.36;48.00;100906.53;4938252;28;45446;-69
2023/07/08 04:25:04;;;;;;;;;2.00;2.00;;;;;23.28;49.00;100908.53;4921502;28;45625;-69
2023/07/08 04:27:29;;;;;;;;;2.00;2.00;;;;;23.31;50.28;100930.03;4938856;28;45235;-69
2023/07/08 04:29:55;;;;;;;;;0.50;0.50;;;;;23.28;48.98;100927.44;4940624;28;45232;-69
2023/07/08 04:32:24;;;;;;;;;2.00;2.00;;;;;23.24;49.72;100924.78;4939603;28;45480;-69
2023/07/08 04:34:53;;;;;;;;;1.25;1.25;;;;;23.25;50.01;100928.38;4935619;28;45435;-69
2023/07/08 04:37:19;;;;;;;;;2.00;2.00;;;;;23.19;48.45;100929.44;4939428;28;45478;-69
2023/07/08 04:39:45;;;;;;;;;2.25;2.25;;;;;23.14;49.93;100928.66;4939994;28;45433;-69
2023/07/08 04:42:13;;;;;;;;;2.50;2.00;;;;;23.15;50.38;100929.53;4938280;28;45545;-69
2023/07/08 04:44:38;;;;;;;;;2.00;1.00;;;;;23.17;50.03;100933.97;4937677;28;45332;-69
2023/07/08 04:47:03;;;;;;;;;2.25;1.25;;;;;23.20;50.12;100944.69;4922380;28;53976;-69
2023/07/08 04:49:31;;;;;;;;;2.25;1.50;;;;;23.18;49.77;100951.91;4938569;28;45456;-69
2023/07/08 04:51:57;;;;;;;;;2.00;2.00;;;;;23.22;49.47;100960.84;4940443;28;45440;-70
2023/07/08 04:54:22;;;;;;;;;2.00;2.00;;;;;23.22;49.50;100967.13;4937538;28;45602;-69
2023/07/08 04:56:49;;;;;;;;;1.50;1.50;;;;;23.25;50.49;100966.16;4922783;28;47253;-69
2023/07/08 04:59:18;;;;;;;;;2.00;1.00;;;;;23.23;50.13;100968.00;4935977;28;45288;-68
2023/07/08 05:01:45;;;;;;;;;3.00;3.00;;;;;23.29;50.42;100973.22;4923603;28;45333;-69
2023/07/08 05:04:15;;;;;;;;;2.00;2.00;;;;;23.26;50.27;100967.03;4935029;28;45568;-69
2023/07/08 05:06:41;;;;;;;;;2.00;2.00;;;;;23.30;50.75;100977.72;4923351;28;48466;-69
2023/07/08 05:09:06;;;;;;;;;1.75;1.75;;;;;23.40;50.31;100991.84;4916694;28;44747;-68
2023/07/08 05:11:31;;;;;;;;;2.00;2.00;;;;;23.44;50.34;101007.91;4940228;28;45292;-69
2023/07/08 05:13:57;;;;;;;;;2.00;2.00;;;;;23.49;50.43;101018.56;4935259;28;45317;-69
2023/07/08 05:16:23;;;;;;;;;2.50;2.00;;;;;23.48;50.34;101019.50;4940595;28;45352;-70
2023/07/08 05:18:48;;;;;;;;;1.50;1.50;;;;;23.53;50.62;101014.00;4936053;28;45316;-69
2023/07/08 05:21:15;;;;;;;;;1.75;1.75;;;;;23.55;50.41;101012.13;4941548;28;45370;-69
2023/07/08 05:23:40;;;;;;;;;1.25;1.25;;;;;23.56;49.93;101008.53;4940453;28;46376;-69
2023/07/08 05:26:07;;;;;;;;;5.25;3.00;;;;;23.58;50.83;101001.25;4942562;28;45382;-70
2023/07/08 05:28:33;;;;;;;;;2.00;2.00;;;;;23.51;50.08;101002.34;4941674;28;45469;-70
2023/07/08 05:30:59;;;;;;;;;2.00;2.00;;;;;23.52;50.77;101004.13;4944021;28;45536;-69
2023/07/08 05:33:26;;;;;;;;;1.75;1.75;;;;;23.56;51.05;101014.81;4938542;28;45414;-69
2023/07/08 05:35:52;;;;;;;;;2.00;2.00;;;;;23.57;51.04;101013.88;4942621;28;45363;-70
2023/07/08 05:38:17;;;;;;;;;2.50;2.50;;;;;23.59;51.57;101017.41;4922246;28;45408;-69
2023/07/08 05:40:43;;;;;;;;;2.00;2.00;;;;;23.55;51.47;101007.63;4942578;28;45265;-69
2023/07/08 05:43:09;;;;;;;;;4.50;3.50;;;;;23.61;51.46;101029.06;4938744;28;45278;-69
2023/07/08 05:45:35;;;;;;;;;5.00;2.00;;;;;23.60;50.80;101040.78;4942873;28;45434;-69
2023/07/08 05:48:01;;;;;;;;;1.00;1.00;;;;;23.63;50.59;101056.00;4938871;28;45388;-70
2023/07/08 05:50:27;;;;;;;;;3.75;2.00;;;;;23.58;51.13;101068.72;4943201;28;45349;-70
2023/07/08 05:52:52;;;;;;;;;2.50;2.50;;;;;23.58;50.93;101068.72;4940713;28;45455;-69
2023/07/08 05:55:17;;;;;;;;;2.00;2.00;;;;;23.59;50.94;101059.72;4942780;28;46016;-70
2023/07/08 05:57:43;;;;;;;;;2.00;1.50;;;;;23.60;50.73;101070.47;4939288;28;52115;-70
2023/07/08 06:00:10;;;;;;;;;4.25;2.50;;;;;23.58;50.83;101057.94;4937583;28;45369;-70
2023/07/08 06:02:36;;;;;;;;;6.00;2.00;;;;;23.51;50.81;101049.09;4920935;28;45981;-71
2023/07/08 06:05:02;;;;;;;;;1.50;1.50;;;;;23.66;51.20;101078.38;4940066;28;45414;-70
2023/07/08 06:07:27;;;;;;;;;3.00;3.00;;;;;23.67;50.69;101085.59;4941767;28;45502;-70
2023/07/08 06:09:55;;;;;;;;;3.00;2.00;;;;;23.72;49.89;101092.69;4938940;28;45292;-70
2023/07/08 06:12:21;;;;;;;;;2.00;2.00;;;;;23.67;50.69;101087.41;4941210;28;45261;-69
2023/07/08 06:14:46;;;;;;;;;2.75;1.25;;;;;23.76;50.83;101106.09;4942464;28;45573;-70
2023/07/08 06:17:11;;;;;;;;;3.00;3.00;;;;;23.75;50.76;101107.03;4941659;28;45465;-69
2023/07/08 06:19:37;;;;;;;;;2.25;2.00;;;;;23.88;51.37;101118.38;4943272;28;45417;-69
2023/07/08 06:22:02;;;;;;;;;2.50;2.50;;;;;23.87;51.20;101113.91;4942303;28;53851;-70
2023/07/08 06:24:27;;;;;;;;;2.00;2.00;;;;;23.97;51.42;101128.06;4939773;28;45433;-70
2023/07/08 06:26:53;;;;;;;;;5.00;4.00;;;;;24.02;50.87;101131.53;4942670;28;45336;-70
2023/07/08 06:29:19;;;;;;;;;5.00;5.00;;;;;24.03;51.57;101119.78;4940968;28;45366;-70
2023/07/08 06:31:44;;;;;;;;;1.25;1.00;;;;;24.14;51.65;101133.91;4940487;28;46127;-70
2023/07/08 06:34:10;;;;;;;;;3.00;2.00;;;;;24.28;51.15;101126.34;4938993;28;46323;-70
2023/07/08 06:36:35;;;;;;;;;3.25;3.25;;;;;24.54;51.72;101141.84;4942358;28;45176;-70
2023/07/08 06:39:00;;;;;;;;;4.00;3.00;;;;;24.76;49.96;101142.13;4922758;28;45398;-70
2023/07/08 06:41:26;;;;;;;;;2.50;2.50;;;;;25.07;50.04;101154.75;4942665;28;45349;-70
2023/07/08 06:43:51;;;;;;;;;3.00;2.00;;;;;25.34;48.65;101144.03;4937387;28;46026;-69
2023/07/08 06:46:18;;;;;;;;;2.00;2.00;;;;;25.66;47.97;101154.72;4942380;28;45244;-70
2023/07/08 06:48:44;;;;;;;;;4.75;3.00;;;;;26.00;46.86;101150.03;4938761;28;45694;-70
2023/07/08 06:51:09;;;;;;;;;4.00;2.00;;;;;26.19;46.63;101137.63;4924898;28;45798;-70
2023/07/08 06:53:34;;;;;;;;;4.00;2.00;;;;;26.53;45.96;101147.28;4939437;28;46164;-70
2023/07/08 06:56:00;;;;;;;;;2.75;2.00;;;;;26.71;45.27;101138.44;4942466;28;45328;-70
2023/07/08 06:58:25;;;;;;;;;4.25;3.00;;;;;27.02;45.06;101150.84;4937899;28;45473;-70
2023/07/08 07:00:51;;;;;;;;;2.75;2.75;;;;;27.34;44.79;101170.47;4942339;28;45536;-70
2023/07/08 07:03:16;;;;;;;;;2.00;2.00;;;;;27.56;44.04;101170.47;4940457;28;46328;-70
2023/07/08 07:05:43;;;;;;;;;2.75;2.75;;;;;27.80;44.06;101172.22;4942604;28;45363;-71
2023/07/08 07:08:08;;;;;;;;;1.25;1.25;;;;;27.98;42.68;101176.03;4934109;28;45370;-70
2023/07/08 07:10:34;;;;;;;;;4.75;2.25;;;;;28.13;42.55;101166.31;4942086;28;45502;-69
2023/07/08 07:13:00;;;;;;;;;2.25;2.25;;;;;28.34;41.97;101189.88;4939946;28;45445;-70
2023/07/08 07:15:25;;;;;;;;;6.00;3.60;;;;;28.50;41.77;101181.94;4936044;28;45499;-71
2023/07/08 07:17:50;;;;;;;;;4.00;2.25;;;;;28.60;41.30;101179.69;4938841;28;45290;-70
2023/07/08 07:20:16;;;;;;;;;3.75;3.00;;;;;28.76;41.50;101185.31;4942005;28;45276;-70
2023/07/08 07:22:42;;;;;;;;;2.75;2.00;;;;;28.88;41.36;101176.59;4938751;28;46213;-69
2023/07/08 07:25:07;;;;;;;;;3.00;2.25;;;;;29.12;40.38;101177.31;4942067;28;45235;-69
2023/07/08 07:27:33;;;;;;;;;2.75;2.75;;;;;29.29;40.23;101190.13;4939982;28;45277;-69
2023/07/08 07:30:01;;;;;;;;;2.00;2.00;;;;;29.36;40.26;101167.09;4941830;28;45329;-71
2023/07/08 07:32:28;;;;;;;;;1.20;1.20;;;;;29.62;39.24;101178.56;4917263;28;48238;-69
2023/07/08 07:34:53;;;;;;;;;2.00;2.00;;;;;29.80;39.19;101174.97;4939918;28;45406;-68
2023/07/08 07:37:21;;;;;;;;;3.00;3.00;;;;;30.05;39.14;101184.63;4939625;28;45328;-68
2023/07/08 07:39:46;;;;;;;;;2.75;2.00;;;;;30.11;38.69;101171.56;4940837;28;45368;-68
2023/07/08 07:42:13;;;;;;;;;2.50;2.50;;;;;30.37;38.80;101190.31;4940888;28;46107;-69
2023/07/08 07:44:41;;;;;;;;;1.80;1.80;;;;;30.52;37.95;101192.22;4938248;28;45177;-70
2023/07/08 07:47:08;;;;;;;;;2.20;2.20;;;;;30.68;38.99;101193.16;4940794;28;45467;-70
2023/07/08 07:49:34;;;;;;;;;2.00;2.00;;;;;30.81;36.88;101184.34;4938744;28;45320;-69
2023/07/08 07:51:59;;;;;;;;;3.00;3.00;;;;;31.06;37.27;101194.81;4941137;28;46133;-69
2023/07/08 07:54:25;;;;;;;;;2.00;2.00;;;;;31.21;37.79;101183.91;4938811;28;45426;-70
2023/07/08 07:56:51;;;;;;;;;1.75;1.75;;;;;31.40;37.16;101180.19;4941467;28;45434;-69
2023/07/08 07:59:16;;;;;;;;;2.00;2.00;;;;;31.51;37.31;101183.19;4938370;28;45567;-69
2023/07/08 08:01:42;;;;;;;;;3.50;3.25;;;;;31.62;36.48;101193.47;4941823;28;46645;-69
2023/07/08 08:04:09;;;;;;;;;3.00;3.00;;;;;31.72;35.82;101202.06;4939631;28;45388;-69
2023/07/08 08:06:34;;;;;;;;;1.80;1.80;;;;;31.96;35.74;101199.75;4924515;28;45348;-69
2023/07/08 08:09:00;;;;;;;;;2.25;2.25;;;;;32.13;36.38;101205.13;4939402;28;45486;-70
2023/07/08 08:11:25;;;;;;;;;4.00;3.00;;;;;32.30;36.13;101210.47;4941125;28;46187;-69
2023/07/08 08:13:52;;;;;;;;;3.00;2.75;;;;;32.43;35.76;101201.50;4936333;28;45706;-69
2023/07/08 08:16:18;;;;;;;;;2.60;2.40;;;;;32.45;34.85;101178.53;4941465;28;45362;-69
2023/07/08 08:18:43;;;;;;;;;3.00;3.00;;;;;32.74;35.45;101200.50;4938158;28;45406;-69
2023/07/08 08:21:09;;;;;;;;;3.50;3.00;;;;;32.79;34.04;101209.31;4941010;28;53417;-69
2023/07/08 08:23:34;;;;;;;;;2.75;2.75;;;;;32.94;34.26;101193.81;4937420;28;46915;-69
2023/07/08 08:25:59;;;;;;;;;2.75;2.50;;;;;33.16;34.80;101204.28;4941256;28;46316;-69
2023/07/08 08:28:25;;;;;;;;;3.50;3.00;;;;;33.37;35.15;101222.09;4938951;28;45327;-69
2023/07/08 08:30:51;;;;;;;;;2.00;2.00;;;;;33.50;34.55;101222.19;4940352;28;46199;-69
2023/07/08 08:33:18;;;;;;;;;2.00;2.00;;;;;33.64;34.00;101233.16;4937286;28;45335;-69
2023/07/08 08:35:43;;;;;;;;;3.40;2.40;;;;;33.74;33.59;101227.94;4939749;28;45403;-70
2023/07/08 08:38:09;;;;;;;;;1.00;1.00;;;;;33.83;33.78;101235.56;4920806;28;46330;-69
2023/07/08 08:40:34;;;;;;;;;3.50;3.50;;;;;33.87;34.09;101220.66;4939474;28;46046;-70
2023/07/08 08:43:20;;;;;;;;;2.00;2.00;;;;;34.06;32.50;101231.31;4935575;28;45427;-69
2023/07/08 08:46:05;;;;;;;;;2.40;2.40;;;;;34.30;33.12;101234.22;4938864;28;45370;-69
2023/07/08 08:48:43;;;;;;;;;4.00;3.00;;;;;34.49;32.67;101219.25;4934266;28;45477;-69
2023/07/08 08:51:15;;;;;;;;;2.60;2.20;;;;;34.63;33.38;101229.31;4940442;28;45368;-69
2023/07/08 08:53:41;;;;;;;;;3.40;3.40;;;;;34.73;31.97;101233.13;4934576;28;45360;-69
2023/07/08 08:56:20;;;;;;;;;4.00;4.00;;;;;34.68;32.31;101203.28;4940554;28;45316;-69
2023/07/08 08:58:54;;;;;;;;;4.00;3.00;;;;;34.92;31.04;101213.50;4936331;28;45400;-69
2023/07/08 09:01:19;;;;;;;;;1.40;1.20;;;;;35.17;31.85;101219.00;4940790;28;45365;-69
2023/07/08 09:03:55;;;;;;;;;5.50;3.00;;;;;35.34;31.82;101226.00;4937261;28;45411;-69
2023/07/08 09:06:28;;;;;;;;;1.40;1.00;;;;;35.49;31.33;101221.28;4939108;28;45310;-69
2023/07/08 09:08:57;;;;;;;;;4.40;4.40;;;;;35.61;31.22;101234.13;4934920;28;45325;-68
2023/07/08 09:11:56;;;;;;;;;2.40;2.40;;;;;35.67;30.93;101238.31;4940275;28;45193;-69
2023/07/08 09:14:28;;;;;;;;;3.40;3.40;;;;;35.71;30.76;101236.19;4936813;28;45367;-68
2023/07/08 09:17:12;;;;;;;;;4.20;3.60;;;;;35.83;29.50;101249.06;4940523;28;45456;-68
2023/07/08 09:19:43;;;;;;;;;4.40;4.40;;;;;35.96;31.02;101237.97;4919722;28;46710;-69
2023/07/08 09:22:48;;;;;;;;;2.40;2.40;;;;;36.21;31.11;101234.25;4939004;28;46442;-69
2023/07/08 09:25:35;;;;;;;;;4.00;4.00;;;;;36.28;30.40;101228.19;4937614;28;45363;-69
2023/07/08 09:28:01;;;;;;;;;3.40;3.40;;;;;36.41;30.10;101233.63;4938409;28;45316;-69
2023/07/08 09:30:28;;;;;;;;;5.00;5.00;;;;;36.47;30.01;101224.88;4940087;28;45773;-69
2023/07/08 09:32:54;;;;;;;;;4.80;4.00;;;;;36.83;30.40;101242.28;4920694;28;47522;-69
2023/07/08 09:35:28;;;;;;;;;5.00;4.00;;;;;36.92;29.51;101232.41;4938953;28;45418;-69
2023/07/08 09:37:54;;;;;;;;;4.60;3.20;;;;;36.97;29.69;101230.13;4935583;28;47506;-70
2023/07/08 09:40:27;;;;;;;;;4.20;2.00;;;;;37.00;29.73;101229.00;4938783;28;45466;-70
2023/07/08 09:43:01;;;;;;;;;4.40;4.00;;;;;36.83;29.89;101231.28;4936473;28;47246;-70
2023/07/08 09:45:28;;;;;;;;;3.60;3.20;;;;;36.76;29.85;101232.75;4939606;28;45335;-70
2023/07/08 09:47:56;;;;;;;;;4.00;4.00;;;;;36.69;30.36;101229.59;4938919;28;45521;-72
2023/07/08 09:50:24;;;;;;;;;1.00;0.20;;;;;36.58;30.21;101229.59;4939809;28;45472;-69
2023/07/08 09:52:53;;;;;;;;;3.20;3.20;;;;;36.44;30.65;101236.13;4937050;28;45419;-70
2023/07/08 09:55:19;;;;;;;;;3.60;3.00;;;;;36.44;30.01;101227.88;4922383;28;45488;-71
2023/07/08 09:57:48;;;;;;;;;4.40;3.00;;;;;36.55;29.78;101213.25;4936355;28;45306;-71
2023/07/08 10:00:17;;;;;;;;;3.60;3.60;;;;;36.72;29.66;101225.72;4937965;28;45532;-70
2023/07/08 10:02:53;;;;;;;;;3.00;3.00;;;;;36.81;29.42;101227.75;4936733;28;45288;-70
2023/07/08 10:05:23;;;;;;;;;4.40;3.20;;;;;36.94;29.62;101223.03;4938763;28;45392;-70
2023/07/08 10:07:53;;;;;;;;;6.20;4.80;;;;;37.17;29.63;101217.56;4939009;28;45293;-71
2023/07/08 10:10:26;;;;;;;;;3.40;3.40;;;;;37.45;28.76;101215.25;4942956;28;45419;-70
2023/07/08 10:13:14;;;;;;;;;7.60;4.40;;;;;37.68;28.34;101218.94;4931207;28;46329;-70
2023/07/08 10:15:46;;;;;;;;;4.60;4.00;;;;;37.99;27.66;101209.84;4941049;28;45382;-71
2023/07/08 10:18:15;;;;;;;;;3.20;3.20;;;;;38.21;28.63;101214.41;4940049;28;45324;-70
2023/07/08 10:21:02;;;;;;;;;4.20;4.20;;;;;38.42;27.57;101213.56;4941244;28;45495;-70
2023/07/08 10:24:00;;;;;;;;;3.80;3.80;;;;;38.61;28.01;101210.06;4937554;28;46843;-71
2023/07/08 10:26:27;;;;;;;;;6.60;4.20;;;;;38.83;26.60;101209.06;4941759;28;45261;-71
2023/07/08 10:29:15;;;;;;;;;4.20;3.00;;;;;39.07;27.38;101223.50;4940793;28;45226;-71
2023/07/08 10:32:04;;;;;;;;;3.00;2.80;;;;;39.25;26.85;101232.00;4934547;28;45476;-71
2023/07/08 10:34:39;;;;;;;;;6.20;3.60;;;;;39.40;26.73;101232.53;4935818;28;47177;-71
2023/07/08 10:37:16;;;;;;;;;3.00;3.00;;;;;39.39;27.12;101222.50;4942040;28;45527;-71
2023/07/08 10:40:16;;;;;;;;;5.20;4.00;;;;;39.56;26.14;101227.34;4932289;28;45415;-70
2023/07/08 10:42:59;;;;;;;;;6.00;4.00;;;;;39.73;25.76;101225.78;4937830;28;45973;-71
2023/07/08 10:45:59;;;;;;;;;4.60;4.60;;;;;39.91;25.76;101227.91;4927200;28;45324;-71
2023/07/08 10:48:49;;;;;;;;;5.80;4.80;;;;;40.08;25.02;101224.41;4921073;28;45352;-71
2023/07/08 10:51:33;;;;;;;;;4.80;3.80;;;;;40.16;25.08;101234.78;4922104;28;45503;-70
2023/07/08 10:54:08;;;;;;;;;3.00;3.00;;;;;40.26;26.07;101227.38;4935968;28;45413;-69
2023/07/08 10:56:53;;;;;;;;;4.00;4.00;;;;;40.22;25.14;101232.34;4924074;28;47152;-72
2023/07/08 10:59:21;;;;;;;;;5.20;5.20;;;;;40.35;25.12;101231.19;4940612;28;45295;-70
2023/07/08 11:02:11;;;;;;;;;3.80;3.80;;;;;40.49;25.10;101231.59;4942105;28;45745;-70
2023/07/08 11:04:50;;;;;;;;;5.80;4.60;;;;;40.61;25.11;101206.50;4937716;28;45431;-70
2023/07/08 11:07:35;;;;;;;;;3.80;3.00;;;;;40.84;24.73;101204.31;4940925;28;45579;-70
2023/07/08 11:10:36;;;;;;;;;7.80;6.60;;;;;40.71;24.45;101204.63;4938378;28;45472;-71
2023/07/08 11:13:21;;;;;;;;;4.40;4.40;;;;;40.81;25.36;101211.03;4888341;28;45326;-71
2023/07/08 11:15:56;;;;;;;;;6.40;5.00;;;;;40.84;25.08;101205.19;4941189;28;45276;-71
2023/07/08 11:18:38;;;;;;;;;4.20;4.20;;;;;40.81;24.82;101205.47;4919839;28;48257;-70
2023/07/08 11:21:12;;;;;;;;;5.60;4.40;;;;;40.72;25.18;101207.22;4942304;28;45328;-71
2023/07/08 11:23:50;;;;;;;;;5.60;5.20;;;;;40.86;23.84;101205.00;4940553;28;45499;-70
2023/07/08 11:26:42;;;;;;;;;4.00;4.00;;;;;40.99;23.11;101199.16;4938534;28;45505;-71
2023/07/08 11:29:20;;;;;;;;;7.00;7.00;;;;;41.09;24.28;101206.44;4936436;28;45377;-70
2023/07/08 11:31:47;;;;;;;;;5.20;4.80;;;;;41.10;23.83;101207.31;4935540;28;45428;-70